Time;durP1;ratioP1;P1;durP2;ratioP2;P2;SDS_P1;SDS_P2;PMS_P1;PMS_P2;Temp;Humidity;BMP_temperature;BMP_pressure;BME280_temperature;BME280_humidity;BME280_pressure;Samples;Min_cycle;Max_cycle;Signal;HPM_P1;HPM_P2
2023/04/01 00:01:48;;;;;;;5.05;1.67;;;;;;;;;;4954787;29;20221;-66
2023/04/01 00:04:13;;;;;;;5.40;1.17;;;;;;;;;;4954003;28;20767;-66
2023/04/01 00:06:39;;;;;;;5.93;1.60;;;;;;;;;;4953836;29;20219;-66
2023/04/01 00:09:04;;;;;;;3.90;1.50;;;;;;;;;;4953951;29;20207;-65
2023/04/01 00:11:30;;;;;;;3.88;1.20;;;;;;;;;;4954226;29;20226;-66
2023/04/01 00:13:55;;;;;;;6.05;1.42;;;;;;;;;;4953653;29;20265;-66
2023/04/01 00:16:20;;;;;;;6.53;1.60;;;;;;;;;;4953826;29;20717;-66
2023/04/01 00:18:47;;;;;;;4.55;1.55;;;;;;;;;;4954615;29;20297;-65
2023/04/01 00:21:12;;;;;;;5.25;1.40;;;;;;;;;;4953360;29;20233;-65
2023/04/01 00:23:37;;;;;;;5.03;1.95;;;;;;;;;;4954311;29;20218;-66
2023/04/01 00:26:03;;;;;;;6.00;1.58;;;;;;;;;;4953771;29;20605;-65
2023/04/01 00:28:28;;;;;;;5.68;1.90;;;;;;;;;;4953405;29;20222;-65
2023/04/01 00:30:53;;;;;;;6.10;1.67;;;;;;;;;;4966632;28;20221;-65
2023/04/01 00:33:19;;;;;;;5.70;1.90;;;;;;;;;;4973021;28;20262;-65
2023/04/01 00:35:45;;;;;;;4.68;1.70;;;;;;;;;;4972772;28;20205;-65
2023/04/01 00:38:11;;;;;;;5.65;2.00;;;;;;;;;;4973054;28;20562;-65
2023/04/01 00:40:37;;;;;;;5.35;1.90;;;;;;;;;;4973433;28;20258;-66
2023/04/01 00:43:03;;;;;;;4.75;1.98;;;;;;;;;;4972112;28;20225;-65
2023/04/01 00:45:32;;;;;;;6.90;2.25;;;;;;;;;;4973279;28;20222;-66
2023/04/01 00:47:59;;;;;;;5.75;2.00;;;;;;;;;;4960985;28;20218;-66
2023/04/01 00:50:24;;;;;;;6.35;2.47;;;;;;;;;;4953284;28;20296;-65
2023/04/01 00:52:49;;;;;;;4.05;2.20;;;;;;;;;;4956247;28;20293;-65
2023/04/01 00:55:15;;;;;;;4.57;2.13;;;;;;;;;;4955485;28;20599;-65
2023/04/01 00:57:40;;;;;;;4.30;2.35;;;;;;;;;;4955400;28;20237;-66
2023/04/01 01:00:07;;;;;;;5.20;2.50;;;;;;;;;;4955750;28;20222;-65
2023/04/01 01:02:32;;;;;;;5.00;2.70;;;;;;;;;;4955273;28;20570;-65
2023/04/01 01:04:57;;;;;;;6.35;2.95;;;;;;;;;;4956064;28;20225;-65
2023/04/01 01:07:30;;;;;;;6.93;3.05;;;;;;;;;;4972602;28;20697;-65
2023/04/01 01:10:00;;;;;;;5.70;3.20;;;;;;;;;;4972341;28;20311;-65
2023/04/01 01:12:26;;;;;;;5.88;3.78;;;;;;;;;;4955421;28;20225;-65
2023/04/01 01:14:53;;;;;;;6.18;3.72;;;;;;;;;;4965437;28;20221;-65
2023/04/01 01:17:37;;;;;;;6.70;4.22;;;;;;;;;;4937709;28;20210;-65
2023/04/01 01:20:03;;;;;;;10.63;4.78;;;;;;;;;;4957374;28;20674;-65
2023/04/01 01:22:36;;;;;;;6.97;4.57;;;;;;;;;;4957511;28;20219;-65
2023/04/01 01:25:09;;;;;;;7.90;5.35;;;;;;;;;;4956377;28;20239;-65
2023/04/01 01:27:34;;;;;;;8.35;5.57;;;;;;;;;;4957301;28;20223;-65
2023/04/01 01:30:00;;;;;;;10.27;6.35;;;;;;;;;;4957164;28;20258;-65
2023/04/01 01:32:42;;;;;;;7.50;6.10;;;;;;;;;;4956033;29;20230;-65
2023/04/01 01:35:12;;;;;;;8.13;6.43;;;;;;;;;;4939630;29;20219;-65
2023/04/01 01:37:37;;;;;;;11.48;6.65;;;;;;;;;;4956461;29;20273;-65
2023/04/01 01:40:03;;;;;;;11.50;7.32;;;;;;;;;;4939573;29;20674;-65
2023/04/01 01:42:29;;;;;;;10.23;7.57;;;;;;;;;;4939999;29;20301;-65
2023/04/01 01:44:54;;;;;;;11.45;7.55;;;;;;;;;;4939106;29;20314;-65
2023/04/01 01:47:20;;;;;;;10.13;7.47;;;;;;;;;;4946548;28;20221;-65
2023/04/01 01:49:45;;;;;;;13.48;8.15;;;;;;;;;;4946553;29;20302;-66
2023/04/01 01:52:11;;;;;;;12.18;7.95;;;;;;;;;;4955904;29;20225;-65
2023/04/01 01:54:36;;;;;;;12.52;8.70;;;;;;;;;;4956909;29;20228;-65
2023/04/01 01:57:04;;;;;;;11.60;8.00;;;;;;;;;;4956604;29;20222;-65
2023/04/01 01:59:30;;;;;;;15.27;9.55;;;;;;;;;;4956039;29;20225;-66
2023/04/01 02:01:55;;;;;;;12.60;9.02;;;;;;;;;;4939696;29;20207;-66
2023/04/01 02:04:20;;;;;;;15.35;9.23;;;;;;;;;;4956193;29;20675;-65
2023/04/01 02:06:47;;;;;;;11.73;9.00;;;;;;;;;;4956113;29;20778;-66
2023/04/01 02:09:13;;;;;;;10.63;8.07;;;;;;;;;;4938887;29;20306;-66
2023/04/01 02:11:41;;;;;;;10.43;7.50;;;;;;;;;;4939661;29;20301;-66
2023/04/01 02:14:10;;;;;;;11.95;7.93;;;;;;;;;;4954953;29;20241;-66
2023/04/01 02:16:39;;;;;;;9.95;7.18;;;;;;;;;;4956391;29;20230;-67
2023/04/01 02:19:07;;;;;;;8.32;6.47;;;;;;;;;;4937747;28;20293;-65
2023/04/01 02:21:32;;;;;;;9.73;6.05;;;;;;;;;;4947801;28;20343;-66
2023/04/01 02:23:58;;;;;;;10.70;6.20;;;;;;;;;;4943179;28;21133;-66
2023/04/01 02:26:23;;;;;;;10.90;6.20;;;;;;;;;;4928961;28;20225;-66
2023/04/01 02:28:48;;;;;;;15.55;7.55;;;;;;;;;;4930051;28;20226;-65
2023/04/01 02:31:14;;;;;;;12.88;6.30;;;;;;;;;;4921250;28;20532;-65
2023/04/01 02:33:39;;;;;;;14.85;6.43;;;;;;;;;;4921626;28;20218;-66
2023/04/01 02:36:05;;;;;;;13.63;6.38;;;;;;;;;;4945144;28;20309;-66
2023/04/01 02:38:30;;;;;;;13.27;6.55;;;;;;;;;;4929547;28;20207;-66
2023/04/01 02:40:56;;;;;;;13.02;6.28;;;;;;;;;;4945868;28;20233;-66
2023/04/01 02:43:22;;;;;;;12.15;5.63;;;;;;;;;;4946382;28;20232;-65
2023/04/01 02:45:47;;;;;;;8.90;4.18;;;;;;;;;;4946414;28;20608;-66
2023/04/01 02:48:13;;;;;;;9.00;4.43;;;;;;;;;;4945396;28;20222;-66
2023/04/01 02:50:39;;;;;;;10.15;4.63;;;;;;;;;;4942323;28;20223;-66
2023/04/01 02:53:06;;;;;;;10.13;4.07;;;;;;;;;;4938053;28;20218;-65
2023/04/01 02:55:31;;;;;;;10.07;3.92;;;;;;;;;;4937945;28;20425;-65
2023/04/01 02:57:56;;;;;;;8.23;4.00;;;;;;;;;;4943236;28;20292;-66
2023/04/01 03:00:22;;;;;;;9.35;3.97;;;;;;;;;;4945663;28;20230;-65
2023/04/01 03:02:47;;;;;;;7.57;4.20;;;;;;;;;;4945506;28;20669;-65
2023/04/01 03:05:12;;;;;;;11.02;4.30;;;;;;;;;;4945619;28;20230;-65
2023/04/01 03:07:38;;;;;;;10.02;4.10;;;;;;;;;;4946589;28;20620;-65
2023/04/01 03:10:03;;;;;;;7.90;3.58;;;;;;;;;;4944622;28;20226;-66
2023/04/01 03:12:29;;;;;;;7.85;3.50;;;;;;;;;;4943771;28;20224;-66
2023/04/01 03:14:54;;;;;;;8.63;3.92;;;;;;;;;;4920652;28;20222;-66
2023/04/01 03:17:19;;;;;;;8.32;4.45;;;;;;;;;;4936806;28;20226;-66
2023/04/01 03:19:45;;;;;;;8.98;4.70;;;;;;;;;;4940114;28;20598;-66
2023/04/01 03:22:10;;;;;;;6.90;3.75;;;;;;;;;;4945809;28;20214;-65
2023/04/01 03:24:36;;;;;;;6.78;3.20;;;;;;;;;;4963632;28;20233;-66
2023/04/01 03:27:01;;;;;;;7.20;3.17;;;;;;;;;;4964448;28;20225;-65
2023/04/01 03:29:26;;;;;;;5.65;3.00;;;;;;;;;;4948122;28;20262;-66
2023/04/01 03:31:51;;;;;;;3.92;2.65;;;;;;;;;;4945658;28;20293;-66
2023/04/01 03:34:17;;;;;;;5.65;3.60;;;;;;;;;;4945665;28;20226;-66
2023/04/01 03:36:42;;;;;;;5.28;3.20;;;;;;;;;;4939194;28;20426;-67
2023/04/01 03:39:07;;;;;;;4.63;3.20;;;;;;;;;;4936404;28;20640;-66
2023/04/01 03:41:34;;;;;;;4.97;3.10;;;;;;;;;;4937525;28;20222;-66
2023/04/01 03:44:00;;;;;;;4.47;3.10;;;;;;;;;;4944648;28;20337;-66
2023/04/01 03:46:25;;;;;;;6.25;3.35;;;;;;;;;;4944177;28;20301;-66
2023/04/01 03:48:50;;;;;;;5.75;3.35;;;;;;;;;;4945966;28;20206;-66
2023/04/01 03:51:15;;;;;;;4.68;3.30;;;;;;;;;;4962869;28;20214;-66
2023/04/01 03:53:41;;;;;;;4.07;3.00;;;;;;;;;;4964912;28;20336;-66
2023/04/01 03:56:06;;;;;;;4.32;3.30;;;;;;;;;;4963602;28;20580;-66
2023/04/01 03:58:32;;;;;;;5.03;3.67;;;;;;;;;;4959276;28;20228;-66
2023/04/01 04:00:57;;;;;;;5.03;3.63;;;;;;;;;;4956407;28;20728;-66
2023/04/01 04:03:22;;;;;;;5.55;3.75;;;;;;;;;;4955590;28;20297;-66
2023/04/01 04:05:48;;;;;;;4.72;3.35;;;;;;;;;;4966147;28;20230;-65
2023/04/01 04:08:13;;;;;;;4.05;3.10;;;;;;;;;;4953781;28;20681;-65
2023/04/01 04:10:39;;;;;;;5.40;3.63;;;;;;;;;;4954504;29;20211;-65
2023/04/01 04:13:05;;;;;;;4.28;3.40;;;;;;;;;;4953444;29;20242;-65
2023/04/01 04:15:30;;;;;;;5.93;3.65;;;;;;;;;;4966947;28;20214;-65
2023/04/01 04:17:55;;;;;;;5.60;3.78;;;;;;;;;;4973333;28;20252;-66
2023/04/01 04:20:20;;;;;;;5.60;3.67;;;;;;;;;;4972526;28;20222;-66
2023/04/01 04:22:46;;;;;;;4.53;3.60;;;;;;;;;;4955966;28;20225;-66
2023/04/01 04:25:11;;;;;;;4.60;3.50;;;;;;;;;;4944405;28;20249;-66
2023/04/01 04:27:36;;;;;;;6.05;3.80;;;;;;;;;;4944290;28;20266;-66
2023/04/01 04:30:02;;;;;;;5.78;3.63;;;;;;;;;;4944876;28;20214;-65
2023/04/01 04:32:27;;;;;;;4.40;3.20;;;;;;;;;;4944947;28;20289;-66
2023/04/01 04:34:52;;;;;;;6.07;3.53;;;;;;;;;;4962646;28;20218;-66
2023/04/01 04:37:17;;;;;;;6.00;4.25;;;;;;;;;;4962400;28;20218;-67
2023/04/01 04:39:43;;;;;;;5.68;4.18;;;;;;;;;;4956651;28;20244;-66
2023/04/01 04:42:08;;;;;;;5.38;3.75;;;;;;;;;;4955001;28;20220;-66
2023/04/01 04:44:33;;;;;;;5.40;3.78;;;;;;;;;;4956672;28;20232;-66
2023/04/01 04:46:59;;;;;;;5.32;3.88;;;;;;;;;;4959567;28;20245;-66
2023/04/01 04:49:24;;;;;;;5.50;3.67;;;;;;;;;;4943542;28;20313;-66
2023/04/01 04:51:50;;;;;;;5.05;3.92;;;;;;;;;;4946339;28;20230;-66
2023/04/01 04:54:15;;;;;;;5.78;4.20;;;;;;;;;;4948313;28;20218;-66
2023/04/01 04:56:40;;;;;;;5.72;4.63;;;;;;;;;;4947909;28;20542;-66
2023/04/01 04:59:06;;;;;;;7.88;5.30;;;;;;;;;;4948302;28;20230;-66
2023/04/01 05:01:33;;;;;;;7.53;5.88;;;;;;;;;;4942021;28;20305;-67
2023/04/01 05:03:58;;;;;;;8.18;5.75;;;;;;;;;;4940369;28;20226;-67
2023/04/01 05:06:25;;;;;;;8.23;5.50;;;;;;;;;;4922377;28;20221;-66
2023/04/01 05:08:50;;;;;;;6.97;5.13;;;;;;;;;;4945631;28;20219;-67
2023/04/01 05:11:16;;;;;;;7.47;5.72;;;;;;;;;;4947980;28;20276;-66
2023/04/01 05:13:41;;;;;;;7.00;5.75;;;;;;;;;;4947967;28;20297;-66
2023/04/01 05:16:09;;;;;;;8.48;6.50;;;;;;;;;;4947681;28;20221;-65
2023/04/01 05:18:34;;;;;;;8.35;6.00;;;;;;;;;;4957573;28;20225;-66
2023/04/01 05:20:59;;;;;;;8.73;6.28;;;;;;;;;;4948384;28;20585;-66
2023/04/01 05:23:25;;;;;;;7.32;6.20;;;;;;;;;;4926131;28;20253;-66
2023/04/01 05:25:52;;;;;;;8.25;6.10;;;;;;;;;;4939959;28;20799;-66
2023/04/01 05:28:17;;;;;;;7.47;6.47;;;;;;;;;;4950946;28;20214;-66
2023/04/01 05:30:43;;;;;;;6.93;6.20;;;;;;;;;;4943036;28;20225;-66
2023/04/01 05:33:08;;;;;;;7.35;6.25;;;;;;;;;;4930072;28;20688;-66
2023/04/01 05:35:34;;;;;;;7.40;6.22;;;;;;;;;;4966431;28;20284;-66
2023/04/01 05:37:59;;;;;;;10.98;6.85;;;;;;;;;;4966186;28;20721;-66
2023/04/01 05:40:24;;;;;;;6.47;5.65;;;;;;;;;;4961754;28;20246;-65
2023/04/01 05:42:50;;;;;;;8.32;6.03;;;;;;;;;;4947838;28;20219;-66
2023/04/01 05:45:15;;;;;;;6.88;6.15;;;;;;;;;;4945296;28;20289;-66
2023/04/01 05:47:41;;;;;;;8.23;6.53;;;;;;;;;;4948911;28;21149;-65
2023/04/01 05:50:07;;;;;;;10.87;9.60;;;;;;;;;;4938154;28;20463;-67
2023/04/01 05:52:32;;;;;;;9.45;7.63;;;;;;;;;;4922481;28;20313;-65
2023/04/01 05:54:59;;;;;;;6.43;5.75;;;;;;;;;;4951119;28;20305;-66
2023/04/01 05:57:24;;;;;;;6.65;5.47;;;;;;;;;;4965927;28;20226;-65
2023/04/01 05:59:50;;;;;;;5.68;4.45;;;;;;;;;;4965433;28;20573;-65
2023/04/01 06:02:16;;;;;;;5.05;3.50;;;;;;;;;;4966228;28;20210;-66
2023/04/01 06:04:41;;;;;;;4.72;3.78;;;;;;;;;;4966221;28;20240;-66
2023/04/01 06:07:14;;;;;;;4.63;3.70;;;;;;;;;;4953877;28;20219;-65
2023/04/01 06:09:40;;;;;;;5.93;3.33;;;;;;;;;;4960129;28;20530;-65
2023/04/01 06:12:17;;;;;;;5.88;3.97;;;;;;;;;;4957241;28;20615;-65
2023/04/01 06:15:04;;;;;;;4.47;3.65;;;;;;;;;;4933514;28;20305;-65
2023/04/01 06:17:29;;;;;;;6.25;4.30;;;;;;;;;;4948402;28;20637;-66
2023/04/01 06:19:57;;;;;;;6.20;4.72;;;;;;;;;;4965078;28;20253;-65
2023/04/01 06:22:29;;;;;;;8.05;5.60;;;;;;;;;;4946070;28;20232;-66
2023/04/01 06:24:56;;;;;;;7.22;5.68;;;;;;;;;;4955029;28;20328;-66
2023/04/01 06:27:39;;;;;;;10.85;6.15;;;;;;;;;;4964366;28;20240;-65
2023/04/01 06:30:18;;;;;;;11.88;8.20;;;;;;;;;;4946255;28;20773;-65
2023/04/01 06:32:47;;;;;;;12.48;7.70;;;;;;;;;;4935616;29;20446;-66
2023/04/01 06:35:22;;;;;;;13.52;8.23;;;;;;;;;;4933445;28;20828;-66
2023/04/01 06:37:58;;;;;;;11.57;7.97;;;;;;;;;;4937632;29;20218;-67
2023/04/01 06:40:24;;;;;;;11.18;7.47;;;;;;;;;;4926353;29;20231;-65
2023/04/01 06:42:55;;;;;;;11.68;8.05;;;;;;;;;;4928066;29;20343;-66
2023/04/01 06:45:20;;;;;;;11.90;7.78;;;;;;;;;;4945733;28;20311;-66
2023/04/01 06:47:52;;;;;;;10.38;7.53;;;;;;;;;;4935359;28;20257;-67
2023/04/01 06:50:25;;;;;;;9.43;6.75;;;;;;;;;;4936500;28;20215;-68
2023/04/01 06:53:03;;;;;;;9.15;6.70;;;;;;;;;;4944575;29;20223;-66
2023/04/01 06:55:37;;;;;;;9.95;6.93;;;;;;;;;;4919382;28;20330;-65
2023/04/01 06:58:03;;;;;;;9.32;6.28;;;;;;;;;;4948226;28;20226;-65
2023/04/01 07:00:30;;;;;;;8.70;5.95;;;;;;;;;;4934966;29;20215;-65
2023/04/01 07:02:59;;;;;;;8.10;6.15;;;;;;;;;;4935977;29;20219;-65
2023/04/01 07:05:24;;;;;;;8.75;5.93;;;;;;;;;;4940977;29;20231;-66
2023/04/01 07:07:53;;;;;;;8.38;6.43;;;;;;;;;;4944042;29;20576;-66
2023/04/01 07:10:32;;;;;;;9.43;6.50;;;;;;;;;;4934142;29;20583;-66
2023/04/01 07:12:58;;;;;;;9.13;6.43;;;;;;;;;;4936531;29;20222;-66
2023/04/01 07:15:26;;;;;;;10.13;7.00;;;;;;;;;;4945161;28;20226;-66
2023/04/01 07:17:52;;;;;;;9.73;7.15;;;;;;;;;;4955648;28;20211;-66
2023/04/01 07:20:20;;;;;;;12.05;7.38;;;;;;;;;;4953907;28;20242;-66
2023/04/01 07:22:47;;;;;;;9.20;7.18;;;;;;;;;;4953504;29;20214;-66
2023/04/01 07:25:12;;;;;;;11.07;7.25;;;;;;;;;;4953645;28;20234;-65
2023/04/01 07:27:38;;;;;;;10.85;7.35;;;;;;;;;;4955213;28;20223;-66
2023/04/01 07:30:04;;;;;;;12.18;7.85;;;;;;;;;;4952804;28;20542;-65
2023/04/01 07:32:36;;;;;;;12.48;7.22;;;;;;;;;;4968992;28;20234;-66
2023/04/01 07:35:08;;;;;;;9.90;7.28;;;;;;;;;;4956870;28;20210;-65
2023/04/01 07:37:44;;;;;;;10.80;7.15;;;;;;;;;;4973375;28;20218;-66
2023/04/01 07:40:28;;;;;;;11.57;7.65;;;;;;;;;;4973865;28;20233;-65
2023/04/01 07:43:04;;;;;;;11.02;6.88;;;;;;;;;;4957009;28;20218;-66
2023/04/01 07:45:33;;;;;;;12.43;7.35;;;;;;;;;;4973138;28;20228;-66
2023/04/01 07:48:09;;;;;;;11.13;7.07;;;;;;;;;;4944641;29;20218;-66
2023/04/01 07:50:37;;;;;;;11.05;6.97;;;;;;;;;;4955317;28;20283;-66
2023/04/01 07:53:06;;;;;;;11.60;7.50;;;;;;;;;;4973592;28;20312;-65
2023/04/01 07:55:36;;;;;;;12.38;9.00;;;;;;;;;;4956859;28;20574;-66
2023/04/01 07:58:04;;;;;;;14.00;8.77;;;;;;;;;;4963741;28;20217;-65
2023/04/01 08:00:31;;;;;;;12.68;8.60;;;;;;;;;;4937520;29;20207;-66
2023/04/01 08:03:04;;;;;;;14.27;10.25;;;;;;;;;;4939326;29;20214;-66
2023/04/01 08:05:32;;;;;;;11.10;8.07;;;;;;;;;;4961372;28;20241;-65
2023/04/01 08:07:58;;;;;;;10.05;6.63;;;;;;;;;;4953914;28;20594;-66
2023/04/01 08:10:27;;;;;;;17.23;14.45;;;;;;;;;;4954090;29;20245;-65
2023/04/01 08:12:53;;;;;;;13.05;10.07;;;;;;;;;;4937151;29;20226;-66
2023/04/01 08:15:21;;;;;;;10.07;6.43;;;;;;;;;;4954138;29;20214;-65
2023/04/01 08:17:59;;;;;;;9.55;6.18;;;;;;;;;;4954474;29;20686;-66
2023/04/01 08:20:31;;;;;;;12.00;8.82;;;;;;;;;;4936094;29;20304;-66
2023/04/01 08:23:16;;;;;;;9.32;6.38;;;;;;;;;;4954323;29;20215;-66
2023/04/01 08:25:44;;;;;;;8.93;5.35;;;;;;;;;;4953056;28;20230;-66
2023/04/01 08:28:11;;;;;;;10.20;7.32;;;;;;;;;;4936820;29;20229;-66
2023/04/01 08:30:47;;;;;;;8.02;5.55;;;;;;;;;;4964553;28;20229;-66
2023/04/01 08:33:15;;;;;;;8.60;5.90;;;;;;;;;;4972394;28;20253;-65
2023/04/01 08:35:43;;;;;;;8.65;5.45;;;;;;;;;;4956246;28;20770;-66
2023/04/01 08:38:13;;;;;;;7.43;4.68;;;;;;;;;;4972796;28;20214;-66
2023/04/01 08:40:41;;;;;;;7.50;4.75;;;;;;;;;;4972608;28;20218;-67
2023/04/01 08:43:08;;;;;;;7.97;5.30;;;;;;;;;;4972896;28;20214;-65
2023/04/01 08:45:44;;;;;;;8.07;5.70;;;;;;;;;;4973458;28;20245;-66
2023/04/01 08:48:14;;;;;;;6.60;4.13;;;;;;;;;;4941140;29;20250;-66
2023/04/01 08:50:45;;;;;;;5.00;3.30;;;;;;;;;;4937099;29;20210;-66
2023/04/01 08:53:21;;;;;;;5.53;3.17;;;;;;;;;;4936540;29;20580;-66
2023/04/01 08:55:49;;;;;;;4.90;2.92;;;;;;;;;;4936067;29;20301;-66
2023/04/01 08:58:32;;;;;;;4.07;2.50;;;;;;;;;;4953655;29;20301;-66
2023/04/01 09:01:10;;;;;;;4.88;2.70;;;;;;;;;;4953369;29;20747;-66
2023/04/01 09:03:36;;;;;;;5.22;2.75;;;;;;;;;;4936735;29;20813;-67
2023/04/01 09:06:06;;;;;;;4.38;2.60;;;;;;;;;;4953638;29;20302;-66
2023/04/01 09:08:36;;;;;;;5.30;2.50;;;;;;;;;;4936185;29;21073;-66
2023/04/01 09:11:11;;;;;;;5.90;2.53;;;;;;;;;;4953526;29;20410;-66
2023/04/01 09:13:42;;;;;;;3.63;2.10;;;;;;;;;;4936912;29;20211;-66
2023/04/01 09:16:08;;;;;;;3.50;2.20;;;;;;;;;;4952814;29;20817;-66
2023/04/01 09:18:45;;;;;;;4.85;2.50;;;;;;;;;;4953776;29;20317;-66
2023/04/01 09:21:10;;;;;;;6.00;3.00;;;;;;;;;;4936441;29;20229;-66
2023/04/01 09:23:53;;;;;;;5.93;3.10;;;;;;;;;;4952902;29;20215;-66
2023/04/01 09:26:22;;;;;;;4.75;2.70;;;;;;;;;;4953419;29;20226;-66
2023/04/01 09:29:02;;;;;;;8.45;4.97;;;;;;;;;;4952927;29;20798;-67
2023/04/01 09:31:36;;;;;;;8.05;5.25;;;;;;;;;;4970563;28;20237;-66
2023/04/01 09:34:05;;;;;;;3.05;1.83;;;;;;;;;;4972568;28;20315;-66
2023/04/01 09:36:35;;;;;;;3.60;2.10;;;;;;;;;;4972440;28;20237;-67
2023/04/01 09:39:16;;;;;;;2.03;1.20;;;;;;;;;;4975503;28;20337;-66
2023/04/01 09:41:57;;;;;;;2.47;1.95;;;;;;;;;;4959354;28;20435;-66
2023/04/01 09:44:25;;;;;;;5.10;4.20;;;;;;;;;;4957892;28;20218;-67
2023/04/01 09:47:00;;;;;;;2.35;1.35;;;;;;;;;;4955923;29;20210;-67
2023/04/01 09:49:33;;;;;;;1.48;0.98;;;;;;;;;;4949261;28;20217;-67
2023/04/01 09:52:02;;;;;;;1.60;0.73;;;;;;;;;;4958491;28;20229;-67
2023/04/01 09:54:46;;;;;;;4.00;2.10;;;;;;;;;;4975756;28;20264;-67
2023/04/01 09:57:18;;;;;;;1.65;1.27;;;;;;;;;;4974992;28;20222;-66
2023/04/01 09:59:46;;;;;;;1.27;0.80;;;;;;;;;;4958805;28;20296;-66
2023/04/01 10:02:30;;;;;;;0.60;0.47;;;;;;;;;;4975862;28;20209;-67
2023/04/01 10:05:14;;;;;;;1.25;0.70;;;;;;;;;;4975368;28;20234;-66
2023/04/01 10:07:39;;;;;;;0.68;0.50;;;;;;;;;;4975846;28;20217;-66
2023/04/01 10:10:10;;;;;;;3.30;1.45;;;;;;;;;;4957046;28;20222;-66
2023/04/01 10:12:41;;;;;;;1.48;0.60;;;;;;;;;;4938846;29;20225;-66
2023/04/01 10:15:07;;;;;;;0.70;0.60;;;;;;;;;;4956138;28;20223;-66
2023/04/01 10:17:33;;;;;;;1.20;0.50;;;;;;;;;;4956717;28;20222;-66
2023/04/01 10:20:13;;;;;;;0.90;0.60;;;;;;;;;;4955702;28;20215;-66
2023/04/01 10:22:44;;;;;;;1.10;0.60;;;;;;;;;;4939289;29;20214;-66
2023/04/01 10:25:33;;;;;;;1.00;0.50;;;;;;;;;;4954924;28;20240;-66
2023/04/01 10:27:59;;;;;;;1.15;0.70;;;;;;;;;;4956265;28;20673;-67
2023/04/01 10:30:44;;;;;;;0.60;0.60;;;;;;;;;;4955657;28;20218;-66
2023/04/01 10:33:19;;;;;;;0.63;0.52;;;;;;;;;;4937890;29;20270;-66
2023/04/01 10:35:59;;;;;;;0.57;0.55;;;;;;;;;;4939211;29;20222;-66
2023/04/01 10:38:42;;;;;;;1.42;0.80;;;;;;;;;;4938622;29;20221;-66
2023/04/01 10:41:14;;;;;;;1.23;0.80;;;;;;;;;;4954861;29;20222;-66
2023/04/01 10:43:46;;;;;;;1.35;0.80;;;;;;;;;;4956102;29;20217;-66
2023/04/01 10:46:30;;;;;;;1.05;0.90;;;;;;;;;;4944865;28;20234;-67
2023/04/01 10:48:56;;;;;;;1.45;1.08;;;;;;;;;;4948806;28;20583;-66
2023/04/01 10:51:27;;;;;;;2.03;1.20;;;;;;;;;;4957051;28;20432;-65
2023/04/01 10:54:02;;;;;;;2.45;1.20;;;;;;;;;;4955037;28;20226;-68
2023/04/01 10:56:45;;;;;;;2.72;1.40;;;;;;;;;;4963794;28;20230;-65
2023/04/01 10:59:15;;;;;;;4.28;1.77;;;;;;;;;;4943248;29;20265;-68
2023/04/01 11:01:48;;;;;;;4.25;2.30;;;;;;;;;;4962786;28;20285;-67
2023/04/01 11:04:13;;;;;;;3.45;2.22;;;;;;;;;;4964287;28;20293;-66
2023/04/01 11:06:38;;;;;;;2.80;2.00;;;;;;;;;;4965515;28;20219;-66
2023/04/01 11:09:14;;;;;;;4.38;2.10;;;;;;;;;;4961892;28;20234;-66
2023/04/01 11:11:46;;;;;;;2.92;2.20;;;;;;;;;;4948282;28;20206;-67
2023/04/01 11:14:30;;;;;;;2.40;1.83;;;;;;;;;;4963692;28;20219;-68
2023/04/01 11:17:03;;;;;;;3.13;1.98;;;;;;;;;;4964936;28;20207;-68
2023/04/01 11:19:30;;;;;;;2.50;1.88;;;;;;;;;;4946618;28;20217;-65
2023/04/01 11:21:55;;;;;;;2.58;2.03;;;;;;;;;;4971044;28;20568;-66
2023/04/01 11:24:24;;;;;;;5.13;2.50;;;;;;;;;;4972979;28;20283;-66
2023/04/01 11:26:52;;;;;;;3.85;2.08;;;;;;;;;;4947354;28;20237;-66
2023/04/01 11:29:27;;;;;;;2.67;1.98;;;;;;;;;;4944503;28;22694;-67
2023/04/01 11:31:57;;;;;;;4.43;2.70;;;;;;;;;;4924130;28;20317;-68
2023/04/01 11:34:41;;;;;;;8.02;5.55;;;;;;;;;;4950368;28;20631;-67
2023/04/01 11:37:10;;;;;;;7.68;4.20;;;;;;;;;;4962949;28;20232;-67
2023/04/01 11:39:42;;;;;;;7.97;4.50;;;;;;;;;;4950357;28;20970;-67
2023/04/01 11:42:26;;;;;;;5.63;3.20;;;;;;;;;;4967714;28;20700;-67
2023/04/01 11:44:53;;;;;;;8.23;4.90;;;;;;;;;;4967847;28;20221;-67
2023/04/01 11:47:18;;;;;;;10.32;6.45;;;;;;;;;;4943324;28;20210;-67
2023/04/01 11:49:45;;;;;;;12.93;6.93;;;;;;;;;;4948528;28;20229;-66
2023/04/01 11:52:11;;;;;;;9.90;5.45;;;;;;;;;;4945686;28;20222;-66
2023/04/01 11:54:36;;;;;;;10.70;7.10;;;;;;;;;;4941715;28;20281;-67
2023/04/01 11:57:18;;;;;;;5.72;3.10;;;;;;;;;;4940698;28;20230;-66
2023/04/01 11:59:46;;;;;;;7.13;4.30;;;;;;;;;;4945455;28;20226;-66
2023/04/01 12:02:12;;;;;;;2.28;1.30;;;;;;;;;;4931237;28;20301;-66
2023/04/01 12:04:43;;;;;;;1.23;0.80;;;;;;;;;;4962006;28;20237;-66
2023/04/01 12:07:19;;;;;;;5.50;3.83;;;;;;;;;;4949936;28;20224;-66
2023/04/01 12:09:48;;;;;;;3.55;2.17;;;;;;;;;;4935263;28;20700;-66
2023/04/01 12:12:23;;;;;;;1.77;0.90;;;;;;;;;;4930317;28;20215;-66
2023/04/01 12:14:54;;;;;;;1.98;0.55;;;;;;;;;;4945572;28;20265;-66
2023/04/01 12:17:38;;;;;;;1.02;0.80;;;;;;;;;;4923388;28;20674;-66
2023/04/01 12:20:16;;;;;;;1.38;0.70;;;;;;;;;;4941144;28;20240;-66
2023/04/01 12:22:45;;;;;;;0.30;0.30;;;;;;;;;;4946095;28;20218;-67
2023/04/01 12:25:26;;;;;;;1.80;0.65;;;;;;;;;;4930973;28;20219;-66
2023/04/01 12:28:05;;;;;;;0.30;0.30;;;;;;;;;;4931324;28;20262;-67
2023/04/01 12:30:33;;;;;;;1.10;0.52;;;;;;;;;;4932056;28;20221;-67
2023/04/01 12:32:58;;;;;;;1.00;0.30;;;;;;;;;;4932857;28;20226;-66
2023/04/01 12:35:24;;;;;;;1.08;0.30;;;;;;;;;;4948421;28;20289;-66
2023/04/01 12:37:50;;;;;;;0.60;0.30;;;;;;;;;;4926672;28;20206;-67
2023/04/01 12:40:25;;;;;;;1.23;0.30;;;;;;;;;;4939845;28;20759;-67
2023/04/01 12:43:04;;;;;;;1.38;0.70;;;;;;;;;;4925816;28;20220;-66
2023/04/01 12:45:30;;;;;;;1.70;1.10;;;;;;;;;;4929530;28;20241;-66
2023/04/01 12:48:02;;;;;;;2.40;0.93;;;;;;;;;;4948245;28;20214;-66
2023/04/01 12:50:37;;;;;;;1.20;0.93;;;;;;;;;;4948452;28;20227;-66
2023/04/01 12:53:02;;;;;;;2.08;1.50;;;;;;;;;;4948661;28;20605;-66
2023/04/01 12:55:33;;;;;;;1.70;1.20;;;;;;;;;;4967154;28;20321;-66
2023/04/01 12:58:16;;;;;;;2.92;1.30;;;;;;;;;;4967205;28;20224;-67
2023/04/01 13:00:45;;;;;;;4.55;2.47;;;;;;;;;;4943376;28;20228;-67
2023/04/01 13:03:17;;;;;;;6.45;3.17;;;;;;;;;;4958863;28;20280;-67
2023/04/01 13:06:06;;;;;;;2.28;1.80;;;;;;;;;;4960352;28;20245;-66
2023/04/01 13:08:36;;;;;;;4.32;3.00;;;;;;;;;;4941936;28;20289;-66
2023/04/01 13:11:20;;;;;;;3.33;2.22;;;;;;;;;;4930944;28;20225;-66
2023/04/01 13:13:50;;;;;;;2.58;2.13;;;;;;;;;;4950490;28;20222;-67
2023/04/01 13:16:15;;;;;;;4.45;2.50;;;;;;;;;;4952482;28;20217;-66
2023/04/01 13:18:53;;;;;;;3.85;2.40;;;;;;;;;;4970765;28;20697;-67
2023/04/01 13:21:32;;;;;;;3.92;2.70;;;;;;;;;;4969300;28;20221;-67
2023/04/01 13:23:58;;;;;;;3.75;2.70;;;;;;;;;;4945903;28;20221;-65
2023/04/01 13:26:28;;;;;;;5.55;4.40;;;;;;;;;;4962249;28;20728;-67
2023/04/01 13:28:57;;;;;;;4.30;2.80;;;;;;;;;;4945705;28;20251;-68
2023/04/01 13:31:32;;;;;;;2.65;1.77;;;;;;;;;;4953158;28;20642;-67
2023/04/01 13:34:08;;;;;;;3.25;1.70;;;;;;;;;;4934726;28;20222;-67
2023/04/01 13:36:36;;;;;;;2.40;1.33;;;;;;;;;;4933746;28;20222;-69
2023/04/01 13:39:05;;;;;;;2.15;1.15;;;;;;;;;;4934051;28;20248;-70
2023/04/01 13:41:33;;;;;;;3.10;1.42;;;;;;;;;;4934619;28;20215;-73
2023/04/01 13:44:00;;;;;;;2.63;1.40;;;;;;;;;;4950204;28;20704;-70
2023/04/01 13:46:26;;;;;;;3.03;1.38;;;;;;;;;;4927282;28;20226;-70
2023/04/01 13:48:55;;;;;;;2.45;1.40;;;;;;;;;;4943900;28;20256;-68
2023/04/01 13:51:39;;;;;;;3.75;1.98;;;;;;;;;;4943832;28;20258;-68
2023/04/01 13:54:06;;;;;;;6.32;1.80;;;;;;;;;;4950010;28;20260;-69
2023/04/01 13:56:43;;;;;;;3.75;1.70;;;;;;;;;;4950890;28;20292;-67
2023/04/01 13:59:13;;;;;;;2.63;2.05;;;;;;;;;;4950510;28;20244;-67
2023/04/01 14:01:49;;;;;;;3.47;2.08;;;;;;;;;;4934119;28;20241;-68
2023/04/01 14:04:20;;;;;;;3.88;1.90;;;;;;;;;;4951089;28;20241;-66
2023/04/01 14:06:46;;;;;;;3.95;2.00;;;;;;;;;;4969684;28;20228;-66
2023/04/01 14:09:19;;;;;;;2.45;1.95;;;;;;;;;;4943771;28;20224;-67
2023/04/01 14:11:52;;;;;;;3.05;2.17;;;;;;;;;;4925341;28;20210;-68
2023/04/01 14:14:31;;;;;;;2.90;1.90;;;;;;;;;;4926846;28;20353;-68
2023/04/01 14:17:00;;;;;;;3.13;1.77;;;;;;;;;;4933499;28;20265;-67
2023/04/01 14:19:27;;;;;;;2.50;1.80;;;;;;;;;;4932574;28;20266;-66
2023/04/01 14:22:12;;;;;;;2.95;1.80;;;;;;;;;;4950798;28;20433;-66
2023/04/01 14:24:37;;;;;;;6.75;2.60;;;;;;;;;;4949975;28;20234;-66
2023/04/01 14:27:03;;;;;;;3.70;1.98;;;;;;;;;;4950073;28;20277;-65
2023/04/01 14:29:31;;;;;;;2.83;1.98;;;;;;;;;;4950733;28;20785;-67
2023/04/01 14:31:59;;;;;;;2.55;1.90;;;;;;;;;;4941916;28;20577;-66
2023/04/01 14:34:43;;;;;;;2.65;2.03;;;;;;;;;;4925257;28;20218;-66
2023/04/01 14:37:27;;;;;;;3.75;1.80;;;;;;;;;;4944859;28;20355;-66
2023/04/01 14:40:11;;;;;;;3.03;1.70;;;;;;;;;;4968609;28;20214;-66
2023/04/01 14:42:49;;;;;;;6.50;3.22;;;;;;;;;;4968686;28;20214;-66
2023/04/01 14:45:20;;;;;;;7.15;5.20;;;;;;;;;;4968133;28;20332;-65
2023/04/01 14:47:50;;;;;;;4.30;2.63;;;;;;;;;;4941532;28;20218;-67
2023/04/01 14:50:17;;;;;;;2.65;1.85;;;;;;;;;;4933817;28;20248;-65
2023/04/01 14:52:46;;;;;;;2.78;2.20;;;;;;;;;;4946635;28;20592;-66
2023/04/01 14:55:19;;;;;;;2.53;1.70;;;;;;;;;;4925485;28;20214;-66